sensor_id;sensor_type;location;lat;lon;timestamp;P1;durP1;ratioP1;P2;durP2;ratioP2
76415;SDS011;65248;55.686;37.678;2022-12-11T00:02:16;4.07;;;2.70;;
76415;SDS011;65248;55.686;37.678;2022-12-11T00:04:42;7.65;;;2.67;;
76415;SDS011;65248;55.686;37.678;2022-12-11T00:07:07;3.90;;;2.30;;
76415;SDS011;65248;55.686;37.678;2022-12-11T00:09:33;4.85;;;2.97;;
76415;SDS011;65248;55.686;37.678;2022-12-11T00:11:59;5.38;;;2.53;;
76415;SDS011;65248;55.686;37.678;2022-12-11T00:14:26;4.28;;;2.45;;
76415;SDS011;65248;55.686;37.678;2022-12-11T00:16:52;5.03;;;2.45;;
76415;SDS011;65248;55.686;37.678;2022-12-11T00:19:18;6.15;;;2.63;;
76415;SDS011;65248;55.686;37.678;2022-12-11T00:21:43;3.97;;;2.40;;
76415;SDS011;65248;55.686;37.678;2022-12-11T00:24:08;8.82;;;2.72;;
76415;SDS011;65248;55.686;37.678;2022-12-11T00:26:37;6.18;;;2.85;;
76415;SDS011;65248;55.686;37.678;2022-12-11T00:29:03;5.65;;;3.03;;
76415;SDS011;65248;55.686;37.678;2022-12-11T00:31:28;6.05;;;2.97;;
76415;SDS011;65248;55.686;37.678;2022-12-11T00:33:54;5.03;;;3.17;;
76415;SDS011;65248;55.686;37.678;2022-12-11T00:36:21;7.70;;;3.47;;
76415;SDS011;65248;55.686;37.678;2022-12-11T00:38:52;8.03;;;4.87;;
76415;SDS011;65248;55.686;37.678;2022-12-11T00:41:18;8.05;;;4.93;;
76415;SDS011;65248;55.686;37.678;2022-12-11T00:43:44;9.45;;;4.57;;
76415;SDS011;65248;55.686;37.678;2022-12-11T00:46:10;9.70;;;5.53;;
76415;SDS011;65248;55.686;37.678;2022-12-11T00:48:43;12.65;;;5.28;;
76415;SDS011;65248;55.686;37.678;2022-12-11T00:51:10;17.10;;;5.55;;
76415;SDS011;65248;55.686;37.678;2022-12-11T00:53:37;10.05;;;5.00;;
76415;SDS011;65248;55.686;37.678;2022-12-11T00:56:10;12.05;;;4.80;;
76415;SDS011;65248;55.686;37.678;2022-12-11T00:58:40;7.63;;;5.05;;
76415;SDS011;65248;55.686;37.678;2022-12-11T01:01:06;10.52;;;4.22;;
76415;SDS011;65248;55.686;37.678;2022-12-11T01:03:34;11.75;;;4.55;;
76415;SDS011;65248;55.686;37.678;2022-12-11T01:05:59;12.30;;;4.85;;
76415;SDS011;65248;55.686;37.678;2022-12-11T01:08:25;16.55;;;4.80;;
76415;SDS011;65248;55.686;37.678;2022-12-11T01:11:07;10.68;;;4.53;;
76415;SDS011;65248;55.686;37.678;2022-12-11T01:13:34;6.82;;;3.72;;
76415;SDS011;65248;55.686;37.678;2022-12-11T01:16:10;10.30;;;4.47;;
76415;SDS011;65248;55.686;37.678;2022-12-11T01:18:40;7.90;;;4.63;;
76415;SDS011;65248;55.686;37.678;2022-12-11T01:21:10;9.32;;;4.40;;
76415;SDS011;65248;55.686;37.678;2022-12-11T01:23:38;11.07;;;4.80;;
76415;SDS011;65248;55.686;37.678;2022-12-11T01:26:08;12.77;;;4.70;;
76415;SDS011;65248;55.686;37.678;2022-12-11T01:28:42;8.43;;;4.55;;
76415;SDS011;65248;55.686;37.678;2022-12-11T01:31:08;8.68;;;4.10;;
76415;SDS011;65248;55.686;37.678;2022-12-11T01:33:35;9.90;;;4.60;;
76415;SDS011;65248;55.686;37.678;2022-12-11T01:36:05;14.13;;;5.80;;
76415;SDS011;65248;55.686;37.678;2022-12-11T01:38:40;8.50;;;4.40;;
76415;SDS011;65248;55.686;37.678;2022-12-11T01:41:09;16.08;;;4.60;;
76415;SDS011;65248;55.686;37.678;2022-12-11T01:46:22;11.52;;;5.05;;
76415;SDS011;65248;55.686;37.678;2022-12-11T01:48:47;10.18;;;4.75;;
76415;SDS011;65248;55.686;37.678;2022-12-11T01:51:13;9.57;;;4.13;;
76415;SDS011;65248;55.686;37.678;2022-12-11T01:53:42;14.82;;;5.57;;
76415;SDS011;65248;55.686;37.678;2022-12-11T01:56:13;8.52;;;4.72;;
76415;SDS011;65248;55.686;37.678;2022-12-11T01:58:40;9.05;;;3.85;;
76415;SDS011;65248;55.686;37.678;2022-12-11T02:01:09;8.10;;;4.75;;
76415;SDS011;65248;55.686;37.678;2022-12-11T02:03:45;15.77;;;4.57;;
76415;SDS011;65248;55.686;37.678;2022-12-11T02:06:28;12.70;;;4.90;;
76415;SDS011;65248;55.686;37.678;2022-12-11T02:08:56;14.75;;;6.10;;
76415;SDS011;65248;55.686;37.678;2022-12-11T02:11:22;23.58;;;4.75;;
76415;SDS011;65248;55.686;37.678;2022-12-11T02:14:01;10.85;;;4.78;;
76415;SDS011;65248;55.686;37.678;2022-12-11T02:16:45;16.90;;;6.30;;
76415;SDS011;65248;55.686;37.678;2022-12-11T02:22:21;18.52;;;6.70;;
76415;SDS011;65248;55.686;37.678;2022-12-11T02:27:52;12.68;;;4.75;;
76415;SDS011;65248;55.686;37.678;2022-12-11T02:30:26;9.35;;;4.38;;
76415;SDS011;65248;55.686;37.678;2022-12-11T02:32:54;9.65;;;4.75;;
76415;SDS011;65248;55.686;37.678;2022-12-11T02:35:21;13.85;;;6.00;;
76415;SDS011;65248;55.686;37.678;2022-12-11T02:37:56;10.30;;;5.43;;
76415;SDS011;65248;55.686;37.678;2022-12-11T02:40:27;10.43;;;5.10;;
76415;SDS011;65248;55.686;37.678;2022-12-11T02:43:00;7.40;;;3.90;;
76415;SDS011;65248;55.686;37.678;2022-12-11T02:45:28;10.35;;;4.55;;
76415;SDS011;65248;55.686;37.678;2022-12-11T02:47:56;13.68;;;4.93;;
76415;SDS011;65248;55.686;37.678;2022-12-11T02:50:24;11.80;;;4.90;;
76415;SDS011;65248;55.686;37.678;2022-12-11T02:52:52;7.55;;;3.85;;
76415;SDS011;65248;55.686;37.678;2022-12-11T02:55:21;17.95;;;5.60;;
76415;SDS011;65248;55.686;37.678;2022-12-11T02:57:52;9.55;;;4.07;;
76415;SDS011;65248;55.686;37.678;2022-12-11T03:00:26;26.30;;;4.95;;
76415;SDS011;65248;55.686;37.678;2022-12-11T03:02:52;10.30;;;4.90;;
76415;SDS011;65248;55.686;37.678;2022-12-11T03:05:17;10.55;;;3.10;;
76415;SDS011;65248;55.686;37.678;2022-12-11T03:07:43;12.80;;;3.97;;
76415;SDS011;65248;55.686;37.678;2022-12-11T03:10:10;7.28;;;3.65;;
76415;SDS011;65248;55.686;37.678;2022-12-11T03:12:39;8.10;;;4.10;;
76415;SDS011;65248;55.686;37.678;2022-12-11T03:15:09;14.30;;;4.35;;
76415;SDS011;65248;55.686;37.678;2022-12-11T03:20:41;11.82;;;4.00;;
76415;SDS011;65248;55.686;37.678;2022-12-11T03:25:34;10.90;;;3.17;;
76415;SDS011;65248;55.686;37.678;2022-12-11T03:28:22;6.43;;;3.13;;
76415;SDS011;65248;55.686;37.678;2022-12-11T03:30:53;14.70;;;3.70;;
76415;SDS011;65248;55.686;37.678;2022-12-11T03:33:29;6.20;;;3.63;;
76415;SDS011;65248;55.686;37.678;2022-12-11T03:36:02;7.50;;;4.03;;
76415;SDS011;65248;55.686;37.678;2022-12-11T03:38:43;12.30;;;4.50;;
76415;SDS011;65248;55.686;37.678;2022-12-11T03:41:13;9.07;;;4.55;;
76415;SDS011;65248;55.686;37.678;2022-12-11T03:43:50;11.43;;;4.22;;
76415;SDS011;65248;55.686;37.678;2022-12-11T03:46:21;12.88;;;4.55;;
76415;SDS011;65248;55.686;37.678;2022-12-11T03:48:58;6.55;;;3.67;;
76415;SDS011;65248;55.686;37.678;2022-12-11T03:51:56;12.38;;;3.38;;
76415;SDS011;65248;55.686;37.678;2022-12-11T03:54:26;11.45;;;4.78;;
76415;SDS011;65248;55.686;37.678;2022-12-11T03:57:03;15.60;;;3.90;;
76415;SDS011;65248;55.686;37.678;2022-12-11T03:59:33;7.78;;;3.45;;
76415;SDS011;65248;55.686;37.678;2022-12-11T04:01:58;17.95;;;4.60;;
76415;SDS011;65248;55.686;37.678;2022-12-11T04:04:24;14.95;;;4.70;;
76415;SDS011;65248;55.686;37.678;2022-12-11T04:06:57;11.68;;;4.80;;
76415;SDS011;65248;55.686;37.678;2022-12-11T04:09:22;28.33;;;4.80;;
76415;SDS011;65248;55.686;37.678;2022-12-11T04:11:53;6.88;;;3.50;;
76415;SDS011;65248;55.686;37.678;2022-12-11T04:14:19;9.73;;;3.90;;
76415;SDS011;65248;55.686;37.678;2022-12-11T04:17:10;20.02;;;4.45;;
76415;SDS011;65248;55.686;37.678;2022-12-11T04:19:38;8.18;;;3.45;;
76415;SDS011;65248;55.686;37.678;2022-12-11T04:22:23;6.75;;;3.75;;
76415;SDS011;65248;55.686;37.678;2022-12-11T04:25:07;6.25;;;3.72;;
76415;SDS011;65248;55.686;37.678;2022-12-11T04:27:32;12.43;;;4.65;;
76415;SDS011;65248;55.686;37.678;2022-12-11T04:30:20;7.93;;;3.97;;
76415;SDS011;65248;55.686;37.678;2022-12-11T04:32:47;8.75;;;3.20;;
76415;SDS011;65248;55.686;37.678;2022-12-11T04:35:20;8.13;;;3.28;;
76415;SDS011;65248;55.686;37.678;2022-12-11T04:37:46;14.45;;;3.85;;
76415;SDS011;65248;55.686;37.678;2022-12-11T04:40:13;12.13;;;4.82;;
76415;SDS011;65248;55.686;37.678;2022-12-11T04:42:47;14.20;;;4.45;;
76415;SDS011;65248;55.686;37.678;2022-12-11T04:45:12;15.95;;;3.58;;
76415;SDS011;65248;55.686;37.678;2022-12-11T04:47:39;7.90;;;3.53;;
76415;SDS011;65248;55.686;37.678;2022-12-11T04:50:08;10.00;;;3.53;;
76415;SDS011;65248;55.686;37.678;2022-12-11T04:52:35;16.77;;;4.95;;
76415;SDS011;65248;55.686;37.678;2022-12-11T04:55:02;11.88;;;4.45;;
76415;SDS011;65248;55.686;37.678;2022-12-11T04:57:32;13.32;;;4.68;;
76415;SDS011;65248;55.686;37.678;2022-12-11T04:59:57;10.40;;;3.83;;
76415;SDS011;65248;55.686;37.678;2022-12-11T05:02:24;8.27;;;3.72;;
76415;SDS011;65248;55.686;37.678;2022-12-11T05:04:50;10.30;;;4.22;;
76415;SDS011;65248;55.686;37.678;2022-12-11T05:07:16;6.55;;;3.53;;
76415;SDS011;65248;55.686;37.678;2022-12-11T05:09:41;16.52;;;3.28;;
76415;SDS011;65248;55.686;37.678;2022-12-11T05:12:07;7.47;;;3.35;;
76415;SDS011;65248;55.686;37.678;2022-12-11T05:14:33;6.18;;;3.55;;
76415;SDS011;65248;55.686;37.678;2022-12-11T05:16:58;6.05;;;3.22;;
76415;SDS011;65248;55.686;37.678;2022-12-11T05:19:24;7.13;;;2.85;;
76415;SDS011;65248;55.686;37.678;2022-12-11T05:21:50;6.85;;;3.15;;
76415;SDS011;65248;55.686;37.678;2022-12-11T05:24:15;8.93;;;2.85;;
76415;SDS011;65248;55.686;37.678;2022-12-11T05:26:40;7.63;;;3.28;;
76415;SDS011;65248;55.686;37.678;2022-12-11T05:29:06;5.97;;;2.70;;
76415;SDS011;65248;55.686;37.678;2022-12-11T05:31:32;5.90;;;2.42;;
76415;SDS011;65248;55.686;37.678;2022-12-11T05:33:57;7.97;;;3.38;;
76415;SDS011;65248;55.686;37.678;2022-12-11T05:36:24;4.68;;;2.47;;
76415;SDS011;65248;55.686;37.678;2022-12-11T05:38:53;5.77;;;2.83;;
76415;SDS011;65248;55.686;37.678;2022-12-11T05:41:22;5.78;;;2.70;;
76415;SDS011;65248;55.686;37.678;2022-12-11T05:43:48;3.05;;;2.22;;
76415;SDS011;65248;55.686;37.678;2022-12-11T05:46:15;5.75;;;3.58;;
76415;SDS011;65248;55.686;37.678;2022-12-11T05:48:43;6.75;;;2.65;;
76415;SDS011;65248;55.686;37.678;2022-12-11T05:51:10;5.60;;;2.90;;
76415;SDS011;65248;55.686;37.678;2022-12-11T05:53:37;6.30;;;2.33;;
76415;SDS011;65248;55.686;37.678;2022-12-11T05:56:05;5.78;;;2.13;;
76415;SDS011;65248;55.686;37.678;2022-12-11T05:58:42;5.70;;;3.00;;
76415;SDS011;65248;55.686;37.678;2022-12-11T06:01:09;3.65;;;1.98;;
76415;SDS011;65248;55.686;37.678;2022-12-11T06:03:37;6.63;;;2.60;;
76415;SDS011;65248;55.686;37.678;2022-12-11T06:06:03;4.80;;;2.25;;
76415;SDS011;65248;55.686;37.678;2022-12-11T06:08:30;7.30;;;3.40;;
76415;SDS011;65248;55.686;37.678;2022-12-11T06:10:56;19.80;;;5.90;;
76415;SDS011;65248;55.686;37.678;2022-12-11T06:13:22;7.95;;;3.65;;
76415;SDS011;65248;55.686;37.678;2022-12-11T06:15:48;14.52;;;3.28;;
76415;SDS011;65248;55.686;37.678;2022-12-11T06:18:13;6.07;;;3.05;;
76415;SDS011;65248;55.686;37.678;2022-12-11T06:20:39;8.57;;;3.58;;
76415;SDS011;65248;55.686;37.678;2022-12-11T06:23:04;5.90;;;3.85;;
76415;SDS011;65248;55.686;37.678;2022-12-11T06:25:30;9.82;;;4.07;;
76415;SDS011;65248;55.686;37.678;2022-12-11T06:27:56;5.63;;;2.97;;
76415;SDS011;65248;55.686;37.678;2022-12-11T06:30:21;7.15;;;2.63;;
76415;SDS011;65248;55.686;37.678;2022-12-11T06:32:47;7.50;;;3.30;;
76415;SDS011;65248;55.686;37.678;2022-12-11T06:35:13;6.15;;;2.60;;
76415;SDS011;65248;55.686;37.678;2022-12-11T06:37:38;7.50;;;3.17;;
76415;SDS011;65248;55.686;37.678;2022-12-11T06:40:04;7.32;;;2.92;;
76415;SDS011;65248;55.686;37.678;2022-12-11T06:42:31;8.07;;;3.40;;
76415;SDS011;65248;55.686;37.678;2022-12-11T06:44:57;9.25;;;3.58;;
76415;SDS011;65248;55.686;37.678;2022-12-11T06:47:27;5.05;;;3.67;;
76415;SDS011;65248;55.686;37.678;2022-12-11T06:49:53;7.30;;;4.43;;
76415;SDS011;65248;55.686;37.678;2022-12-11T06:52:20;12.75;;;4.40;;
76415;SDS011;65248;55.686;37.678;2022-12-11T06:54:46;8.70;;;2.90;;
76415;SDS011;65248;55.686;37.678;2022-12-11T06:57:11;10.02;;;3.65;;
76415;SDS011;65248;55.686;37.678;2022-12-11T06:59:37;8.05;;;3.58;;
76415;SDS011;65248;55.686;37.678;2022-12-11T07:02:02;4.22;;;2.58;;
76415;SDS011;65248;55.686;37.678;2022-12-11T07:04:28;10.25;;;4.50;;
76415;SDS011;65248;55.686;37.678;2022-12-11T07:06:55;7.60;;;3.03;;
76415;SDS011;65248;55.686;37.678;2022-12-11T07:09:21;5.82;;;3.22;;
76415;SDS011;65248;55.686;37.678;2022-12-11T07:11:51;7.95;;;4.30;;
76415;SDS011;65248;55.686;37.678;2022-12-11T07:14:17;8.88;;;4.70;;
76415;SDS011;65248;55.686;37.678;2022-12-11T07:16:43;9.10;;;4.50;;
76415;SDS011;65248;55.686;37.678;2022-12-11T07:19:09;10.88;;;3.63;;
76415;SDS011;65248;55.686;37.678;2022-12-11T07:21:35;7.80;;;3.90;;
76415;SDS011;65248;55.686;37.678;2022-12-11T07:24:00;8.10;;;4.20;;
76415;SDS011;65248;55.686;37.678;2022-12-11T07:26:26;6.93;;;3.97;;
76415;SDS011;65248;55.686;37.678;2022-12-11T07:28:51;7.38;;;3.80;;
76415;SDS011;65248;55.686;37.678;2022-12-11T07:31:18;4.88;;;3.45;;
76415;SDS011;65248;55.686;37.678;2022-12-11T07:33:46;7.65;;;4.18;;
76415;SDS011;65248;55.686;37.678;2022-12-11T07:36:16;10.18;;;3.95;;
76415;SDS011;65248;55.686;37.678;2022-12-11T07:38:41;10.90;;;4.28;;
76415;SDS011;65248;55.686;37.678;2022-12-11T07:41:09;5.88;;;3.88;;
76415;SDS011;65248;55.686;37.678;2022-12-11T07:43:36;13.77;;;4.43;;
76415;SDS011;65248;55.686;37.678;2022-12-11T07:46:02;8.85;;;4.22;;
76415;SDS011;65248;55.686;37.678;2022-12-11T07:48:36;7.88;;;4.63;;
76415;SDS011;65248;55.686;37.678;2022-12-11T07:53:40;9.65;;;3.97;;
76415;SDS011;65248;55.686;37.678;2022-12-11T07:56:06;7.50;;;4.15;;
76415;SDS011;65248;55.686;37.678;2022-12-11T07:58:32;5.53;;;3.47;;
76415;SDS011;65248;55.686;37.678;2022-12-11T08:00:58;11.77;;;5.22;;
76415;SDS011;65248;55.686;37.678;2022-12-11T08:03:23;11.50;;;4.53;;
76415;SDS011;65248;55.686;37.678;2022-12-11T08:05:49;9.77;;;5.00;;
76415;SDS011;65248;55.686;37.678;2022-12-11T08:08:16;11.75;;;5.05;;
76415;SDS011;65248;55.686;37.678;2022-12-11T08:10:42;9.50;;;4.88;;
76415;SDS011;65248;55.686;37.678;2022-12-11T08:13:08;9.93;;;4.50;;
76415;SDS011;65248;55.686;37.678;2022-12-11T08:15:34;8.27;;;4.65;;
76415;SDS011;65248;55.686;37.678;2022-12-11T08:18:00;10.95;;;4.40;;
76415;SDS011;65248;55.686;37.678;2022-12-11T08:20:26;8.00;;;4.85;;
76415;SDS011;65248;55.686;37.678;2022-12-11T08:22:51;8.55;;;4.40;;
76415;SDS011;65248;55.686;37.678;2022-12-11T08:25:17;12.45;;;5.72;;
76415;SDS011;65248;55.686;37.678;2022-12-11T08:27:42;7.07;;;4.18;;
76415;SDS011;65248;55.686;37.678;2022-12-11T08:30:08;10.70;;;4.75;;
76415;SDS011;65248;55.686;37.678;2022-12-11T08:32:34;7.65;;;4.43;;
76415;SDS011;65248;55.686;37.678;2022-12-11T08:34:59;11.15;;;4.22;;
76415;SDS011;65248;55.686;37.678;2022-12-11T08:37:25;7.72;;;4.75;;
76415;SDS011;65248;55.686;37.678;2022-12-11T08:39:51;8.38;;;4.47;;
76415;SDS011;65248;55.686;37.678;2022-12-11T08:42:16;10.02;;;4.75;;
76415;SDS011;65248;55.686;37.678;2022-12-11T08:44:42;10.90;;;4.88;;
76415;SDS011;65248;55.686;37.678;2022-12-11T08:47:07;9.70;;;4.90;;
76415;SDS011;65248;55.686;37.678;2022-12-11T08:49:36;9.82;;;5.45;;
76415;SDS011;65248;55.686;37.678;2022-12-11T08:52:02;17.23;;;5.78;;
76415;SDS011;65248;55.686;37.678;2022-12-11T08:54:29;13.98;;;5.75;;
76415;SDS011;65248;55.686;37.678;2022-12-11T08:56:55;12.65;;;5.30;;
76415;SDS011;65248;55.686;37.678;2022-12-11T08:59:20;12.90;;;5.38;;
76415;SDS011;65248;55.686;37.678;2022-12-11T09:01:46;10.50;;;5.82;;
76415;SDS011;65248;55.686;37.678;2022-12-11T09:04:22;11.52;;;5.40;;
76415;SDS011;65248;55.686;37.678;2022-12-11T09:06:47;15.02;;;6.00;;
76415;SDS011;65248;55.686;37.678;2022-12-11T09:09:13;8.60;;;5.07;;
76415;SDS011;65248;55.686;37.678;2022-12-11T09:11:39;8.93;;;4.47;;
76415;SDS011;65248;55.686;37.678;2022-12-11T09:14:06;11.18;;;5.60;;
76415;SDS011;65248;55.686;37.678;2022-12-11T09:16:31;10.23;;;4.75;;
76415;SDS011;65248;55.686;37.678;2022-12-11T09:18:58;12.60;;;5.07;;
76415;SDS011;65248;55.686;37.678;2022-12-11T09:21:25;16.52;;;6.70;;
76415;SDS011;65248;55.686;37.678;2022-12-11T09:23:54;10.57;;;5.57;;
76415;SDS011;65248;55.686;37.678;2022-12-11T09:26:21;12.00;;;5.57;;
76415;SDS011;65248;55.686;37.678;2022-12-11T09:28:47;8.68;;;5.18;;
76415;SDS011;65248;55.686;37.678;2022-12-11T09:31:14;14.00;;;5.05;;
76415;SDS011;65248;55.686;37.678;2022-12-11T09:33:44;13.10;;;4.90;;
76415;SDS011;65248;55.686;37.678;2022-12-11T09:36:11;13.32;;;5.60;;
76415;SDS011;65248;55.686;37.678;2022-12-11T09:38:37;14.05;;;6.75;;
76415;SDS011;65248;55.686;37.678;2022-12-11T09:46:26;12.17;;;6.07;;
76415;SDS011;65248;55.686;37.678;2022-12-11T09:48:53;7.40;;;5.40;;
76415;SDS011;65248;55.686;37.678;2022-12-11T09:53:58;19.23;;;6.30;;
76415;SDS011;65248;55.686;37.678;2022-12-11T10:02:45;11.00;;;5.78;;
76415;SDS011;65248;55.686;37.678;2022-12-11T10:16:44;15.32;;;7.40;;
76415;SDS011;65248;55.686;37.678;2022-12-11T10:19:14;22.90;;;7.00;;
76415;SDS011;65248;55.686;37.678;2022-12-11T10:21:43;12.82;;;7.05;;
76415;SDS011;65248;55.686;37.678;2022-12-11T10:27:37;11.85;;;5.45;;
76415;SDS011;65248;55.686;37.678;2022-12-11T10:30:19;8.55;;;4.72;;
76415;SDS011;65248;55.686;37.678;2022-12-11T10:33:10;9.20;;;4.70;;
76415;SDS011;65248;55.686;37.678;2022-12-11T10:35:47;10.38;;;5.40;;
76415;SDS011;65248;55.686;37.678;2022-12-11T10:38:19;10.75;;;5.32;;
76415;SDS011;65248;55.686;37.678;2022-12-11T10:41:17;7.35;;;5.03;;
76415;SDS011;65248;55.686;37.678;2022-12-11T10:43:49;16.25;;;5.47;;
76415;SDS011;65248;55.686;37.678;2022-12-11T10:46:20;6.85;;;5.05;;
76415;SDS011;65248;55.686;37.678;2022-12-11T10:48:49;6.90;;;4.45;;
76415;SDS011;65248;55.686;37.678;2022-12-11T10:54:03;12.57;;;5.13;;
76415;SDS011;65248;55.686;37.678;2022-12-11T10:56:32;8.65;;;4.50;;
76415;SDS011;65248;55.686;37.678;2022-12-11T10:59:01;9.45;;;5.00;;
76415;SDS011;65248;55.686;37.678;2022-12-11T11:01:28;10.40;;;4.70;;
76415;SDS011;65248;55.686;37.678;2022-12-11T11:06:30;8.05;;;4.07;;
76415;SDS011;65248;55.686;37.678;2022-12-11T11:08:57;11.18;;;4.88;;
76415;SDS011;65248;55.686;37.678;2022-12-11T11:14:03;13.10;;;4.90;;
76415;SDS011;65248;55.686;37.678;2022-12-11T11:16:30;9.98;;;4.88;;
76415;SDS011;65248;55.686;37.678;2022-12-11T11:18:56;7.25;;;4.85;;
76415;SDS011;65248;55.686;37.678;2022-12-11T11:21:23;7.40;;;4.22;;
76415;SDS011;65248;55.686;37.678;2022-12-11T11:23:51;6.32;;;4.25;;
76415;SDS011;65248;55.686;37.678;2022-12-11T11:26:18;10.77;;;5.78;;
76415;SDS011;65248;55.686;37.678;2022-12-11T11:28:47;9.32;;;5.32;;
76415;SDS011;65248;55.686;37.678;2022-12-11T11:31:14;9.27;;;5.32;;
76415;SDS011;65248;55.686;37.678;2022-12-11T11:36:19;10.45;;;4.78;;
76415;SDS011;65248;55.686;37.678;2022-12-11T11:44:20;11.90;;;4.78;;
76415;SDS011;65248;55.686;37.678;2022-12-11T11:46:57;11.00;;;5.80;;
76415;SDS011;65248;55.686;37.678;2022-12-11T11:52:38;10.95;;;5.35;;
76415;SDS011;65248;55.686;37.678;2022-12-11T11:57:57;11.63;;;5.63;;
76415;SDS011;65248;55.686;37.678;2022-12-11T12:00:25;11.82;;;5.63;;
76415;SDS011;65248;55.686;37.678;2022-12-11T12:03:03;11.05;;;5.72;;
76415;SDS011;65248;55.686;37.678;2022-12-11T12:11:05;7.95;;;5.10;;
76415;SDS011;65248;55.686;37.678;2022-12-11T12:22:40;9.23;;;4.65;;
76415;SDS011;65248;55.686;37.678;2022-12-11T12:27:31;7.93;;;4.13;;
76415;SDS011;65248;55.686;37.678;2022-12-11T12:30:08;9.15;;;4.60;;
76415;SDS011;65248;55.686;37.678;2022-12-11T12:38:53;10.38;;;5.32;;
76415;SDS011;65248;55.686;37.678;2022-12-11T12:41:32;13.48;;;5.20;;
76415;SDS011;65248;55.686;37.678;2022-12-11T12:46:59;8.35;;;4.63;;
76415;SDS011;65248;55.686;37.678;2022-12-11T12:54:45;5.32;;;3.53;;
76415;SDS011;65248;55.686;37.678;2022-12-11T12:57:33;4.97;;;3.60;;
76415;SDS011;65248;55.686;37.678;2022-12-11T13:00:01;8.45;;;4.00;;
76415;SDS011;65248;55.686;37.678;2022-12-11T13:02:30;7.75;;;4.20;;
76415;SDS011;65248;55.686;37.678;2022-12-11T13:04:59;8.32;;;3.95;;
76415;SDS011;65248;55.686;37.678;2022-12-11T13:07:31;4.70;;;2.65;;
76415;SDS011;65248;55.686;37.678;2022-12-11T13:10:05;6.82;;;3.05;;
76415;SDS011;65248;55.686;37.678;2022-12-11T13:12:45;8.82;;;3.53;;
76415;SDS011;65248;55.686;37.678;2022-12-11T13:15:24;7.20;;;3.20;;
76415;SDS011;65248;55.686;37.678;2022-12-11T13:17:51;3.65;;;2.83;;
76415;SDS011;65248;55.686;37.678;2022-12-11T13:20:18;4.57;;;3.03;;
76415;SDS011;65248;55.686;37.678;2022-12-11T13:25:31;4.38;;;2.83;;
76415;SDS011;65248;55.686;37.678;2022-12-11T13:28:21;3.33;;;2.22;;
76415;SDS011;65248;55.686;37.678;2022-12-11T13:33:40;9.15;;;4.18;;
76415;SDS011;65248;55.686;37.678;2022-12-11T13:38:35;5.50;;;3.35;;
76415;SDS011;65248;55.686;37.678;2022-12-11T13:41:03;4.85;;;2.92;;
76415;SDS011;65248;55.686;37.678;2022-12-11T13:43:35;7.20;;;2.90;;
76415;SDS011;65248;55.686;37.678;2022-12-11T13:46:04;6.47;;;2.88;;
76415;SDS011;65248;55.686;37.678;2022-12-11T13:48:46;5.70;;;2.92;;
76415;SDS011;65248;55.686;37.678;2022-12-11T13:51:13;4.05;;;2.67;;
76415;SDS011;65248;55.686;37.678;2022-12-11T13:53:44;2.97;;;2.40;;
76415;SDS011;65248;55.686;37.678;2022-12-11T13:56:20;3.05;;;2.25;;
76415;SDS011;65248;55.686;37.678;2022-12-11T13:58:46;5.10;;;2.88;;
76415;SDS011;65248;55.686;37.678;2022-12-11T14:01:16;4.68;;;2.58;;
76415;SDS011;65248;55.686;37.678;2022-12-11T14:06:22;4.53;;;2.17;;
76415;SDS011;65248;55.686;37.678;2022-12-11T14:08:50;3.17;;;2.70;;
76415;SDS011;65248;55.686;37.678;2022-12-11T14:11:29;5.07;;;2.95;;
76415;SDS011;65248;55.686;37.678;2022-12-11T14:13:59;4.88;;;2.92;;
76415;SDS011;65248;55.686;37.678;2022-12-11T14:16:27;3.20;;;2.15;;
76415;SDS011;65248;55.686;37.678;2022-12-11T14:18:54;4.25;;;2.75;;
76415;SDS011;65248;55.686;37.678;2022-12-11T14:21:27;10.13;;;2.53;;
76415;SDS011;65248;55.686;37.678;2022-12-11T14:23:56;5.32;;;2.85;;
76415;SDS011;65248;55.686;37.678;2022-12-11T14:26:24;4.25;;;2.63;;
76415;SDS011;65248;55.686;37.678;2022-12-11T14:28:52;7.30;;;3.00;;
76415;SDS011;65248;55.686;37.678;2022-12-11T14:31:39;3.70;;;2.30;;
76415;SDS011;65248;55.686;37.678;2022-12-11T14:34:12;4.25;;;2.97;;
76415;SDS011;65248;55.686;37.678;2022-12-11T14:36:41;4.07;;;2.53;;
76415;SDS011;65248;55.686;37.678;2022-12-11T14:39:25;3.53;;;1.98;;
76415;SDS011;65248;55.686;37.678;2022-12-11T14:42:02;2.60;;;2.00;;
76415;SDS011;65248;55.686;37.678;2022-12-11T14:44:29;6.05;;;2.70;;
76415;SDS011;65248;55.686;37.678;2022-12-11T14:46:59;5.72;;;2.67;;
76415;SDS011;65248;55.686;37.678;2022-12-11T14:50:02;4.85;;;2.85;;
76415;SDS011;65248;55.686;37.678;2022-12-11T14:52:30;5.77;;;3.13;;
76415;SDS011;65248;55.686;37.678;2022-12-11T14:55:05;3.85;;;2.53;;
76415;SDS011;65248;55.686;37.678;2022-12-11T14:57:33;5.45;;;3.10;;
76415;SDS011;65248;55.686;37.678;2022-12-11T14:59:59;4.78;;;2.55;;
76415;SDS011;65248;55.686;37.678;2022-12-11T15:05:11;4.88;;;2.88;;
76415;SDS011;65248;55.686;37.678;2022-12-11T15:07:43;4.05;;;2.67;;
76415;SDS011;65248;55.686;37.678;2022-12-11T15:10:22;4.35;;;2.53;;
76415;SDS011;65248;55.686;37.678;2022-12-11T15:12:55;3.60;;;2.75;;
76415;SDS011;65248;55.686;37.678;2022-12-11T15:15:21;3.40;;;2.60;;
76415;SDS011;65248;55.686;37.678;2022-12-11T15:17:52;7.65;;;3.40;;
76415;SDS011;65248;55.686;37.678;2022-12-11T15:20:21;14.30;;;2.80;;
76415;SDS011;65248;55.686;37.678;2022-12-11T15:22:52;4.65;;;3.03;;
76415;SDS011;65248;55.686;37.678;2022-12-11T15:25:23;4.07;;;2.35;;
76415;SDS011;65248;55.686;37.678;2022-12-11T15:27:52;4.72;;;2.60;;
76415;SDS011;65248;55.686;37.678;2022-12-11T15:33:02;4.22;;;2.60;;
76415;SDS011;65248;55.686;37.678;2022-12-11T15:35:28;12.65;;;3.90;;
76415;SDS011;65248;55.686;37.678;2022-12-11T15:37:53;6.43;;;3.75;;
76415;SDS011;65248;55.686;37.678;2022-12-11T15:40:21;5.72;;;2.75;;
76415;SDS011;65248;55.686;37.678;2022-12-11T15:42:47;4.25;;;2.75;;
76415;SDS011;65248;55.686;37.678;2022-12-11T15:45:20;6.95;;;3.55;;
76415;SDS011;65248;55.686;37.678;2022-12-11T15:47:51;6.32;;;3.03;;
76415;SDS011;65248;55.686;37.678;2022-12-11T15:50:23;8.73;;;3.30;;
76415;SDS011;65248;55.686;37.678;2022-12-11T15:52:51;4.20;;;2.80;;
76415;SDS011;65248;55.686;37.678;2022-12-11T15:55:18;4.40;;;3.50;;
76415;SDS011;65248;55.686;37.678;2022-12-11T15:57:55;5.47;;;2.97;;
76415;SDS011;65248;55.686;37.678;2022-12-11T16:00:23;3.83;;;3.03;;
76415;SDS011;65248;55.686;37.678;2022-12-11T16:02:53;3.92;;;2.63;;
76415;SDS011;65248;55.686;37.678;2022-12-11T16:08:09;5.50;;;2.92;;
76415;SDS011;65248;55.686;37.678;2022-12-11T16:10:39;5.47;;;2.93;;
76415;SDS011;65248;55.686;37.678;2022-12-11T16:13:08;4.65;;;3.28;;
76415;SDS011;65248;55.686;37.678;2022-12-11T16:15:35;4.40;;;3.22;;
76415;SDS011;65248;55.686;37.678;2022-12-11T16:18:03;4.65;;;2.97;;
76415;SDS011;65248;55.686;37.678;2022-12-11T16:20:33;3.78;;;3.10;;
76415;SDS011;65248;55.686;37.678;2022-12-11T16:23:00;2.72;;;2.33;;
76415;SDS011;65248;55.686;37.678;2022-12-11T16:25:26;5.20;;;3.33;;
76415;SDS011;65248;55.686;37.678;2022-12-11T16:27:56;3.88;;;2.90;;
76415;SDS011;65248;55.686;37.678;2022-12-11T16:30:23;4.80;;;3.28;;
76415;SDS011;65248;55.686;37.678;2022-12-11T16:32:49;5.22;;;3.58;;
76415;SDS011;65248;55.686;37.678;2022-12-11T16:35:15;3.63;;;3.00;;
76415;SDS011;65248;55.686;37.678;2022-12-11T16:37:40;3.00;;;2.20;;
76415;SDS011;65248;55.686;37.678;2022-12-11T16:40:06;3.55;;;2.13;;
76415;SDS011;65248;55.686;37.678;2022-12-11T16:42:32;6.32;;;3.30;;